createdAt,value
2022-11-13T00:00:09.179Z,6.50
2022-11-13T00:01:09.178Z,6.30
2022-11-13T00:02:09.231Z,6.10
2022-11-13T00:03:09.155Z,6.70
2022-11-13T00:04:09.139Z,6.40
2022-11-13T00:05:09.132Z,7.00
2022-11-13T00:06:09.127Z,7.40
2022-11-13T00:07:09.159Z,5.90
2022-11-13T00:08:09.093Z,5.60
2022-11-13T00:09:09.087Z,8.40
2022-11-13T00:10:09.100Z,8.00
2022-11-13T00:11:09.075Z,7.30
2022-11-13T00:12:09.067Z,7.10
2022-11-13T00:13:09.043Z,6.40
2022-11-13T00:14:09.029Z,7.40
2022-11-13T00:15:09.030Z,7.50
2022-11-13T00:16:09.019Z,7.10
2022-11-13T00:17:09.006Z,8.20
2022-11-13T00:18:08.987Z,7.30
2022-11-13T00:19:08.977Z,21.20
2022-11-13T00:20:08.969Z,8.60
2022-11-13T00:21:08.972Z,7.20
2022-11-13T00:22:08.945Z,7.40
2022-11-13T00:23:08.939Z,7.70
2022-11-13T00:24:08.921Z,7.00
2022-11-13T00:25:08.916Z,7.10
2022-11-13T00:26:08.913Z,5.20
2022-11-13T00:27:08.901Z,6.90
2022-11-13T00:28:08.878Z,5.80
2022-11-13T00:29:08.874Z,6.70
2022-11-13T00:30:08.862Z,6.20
2022-11-13T00:31:08.862Z,7.00
2022-11-13T00:32:08.852Z,6.90
2022-11-13T00:33:08.838Z,6.90
2022-11-13T00:34:33.224Z,7.60
2022-11-13T00:35:08.836Z,6.90
2022-11-13T00:36:08.796Z,7.70
2022-11-13T00:37:08.791Z,6.30
2022-11-13T00:38:08.770Z,7.30
2022-11-13T00:39:08.767Z,7.00
2022-11-13T00:40:08.754Z,6.80
2022-11-13T00:41:08.761Z,8.10
2022-11-13T00:42:08.730Z,8.40
2022-11-13T00:43:08.731Z,7.30
2022-11-13T00:44:08.709Z,8.00
2022-11-13T00:45:08.705Z,6.40
2022-11-13T00:46:08.697Z,7.20
2022-11-13T00:47:08.686Z,12.40
2022-11-13T00:48:08.663Z,10.20
2022-11-13T00:49:08.660Z,9.10
2022-11-13T00:50:08.655Z,9.30
2022-11-13T00:51:08.662Z,8.00
2022-11-13T00:52:08.621Z,8.50
2022-11-13T00:53:09.994Z,7.80
2022-11-13T00:54:08.605Z,8.70
2022-11-13T00:55:08.598Z,10.40
2022-11-13T00:56:08.600Z,9.20
2022-11-13T00:57:08.571Z,8.00
2022-11-13T00:58:08.557Z,8.40
2022-11-13T00:59:08.568Z,8.70
2022-11-13T01:00:08.539Z,8.20
2022-11-13T01:01:08.728Z,8.30
2022-11-13T01:02:08.515Z,7.60
2022-11-13T01:03:08.510Z,7.40
2022-11-13T01:04:08.493Z,7.50
2022-11-13T01:05:08.499Z,7.50
2022-11-13T01:06:08.486Z,7.20
2022-11-13T01:07:08.510Z,6.70
2022-11-13T01:08:08.450Z,7.00
2022-11-13T01:09:08.447Z,7.30
2022-11-13T01:10:08.430Z,7.50
2022-11-13T01:11:08.438Z,7.00
2022-11-13T01:12:08.408Z,6.70
2022-11-13T01:13:08.408Z,7.20
2022-11-13T01:14:08.383Z,8.20
2022-11-13T01:15:08.380Z,7.80
2022-11-13T01:16:08.376Z,8.10
2022-11-13T01:17:08.358Z,7.40
2022-11-13T01:18:08.344Z,7.70
2022-11-13T01:19:08.337Z,6.70
2022-11-13T01:20:08.326Z,6.70
2022-11-13T01:21:08.331Z,7.70
2022-11-13T01:22:08.302Z,6.40
2022-11-13T01:23:08.293Z,7.10
2022-11-13T01:24:08.279Z,7.00
2022-11-13T01:25:08.270Z,7.60
2022-11-13T01:26:08.267Z,7.50
2022-11-13T01:27:08.253Z,7.60
2022-11-13T01:28:08.239Z,8.10
2022-11-13T01:29:08.227Z,8.20
2022-11-13T01:30:08.222Z,8.40
2022-11-13T01:31:08.224Z,8.50
2022-11-13T01:32:08.193Z,7.60
2022-11-13T01:33:08.187Z,7.40
2022-11-13T01:34:08.174Z,7.30
2022-11-13T01:35:08.162Z,7.30
2022-11-13T01:36:08.160Z,7.40
2022-11-13T01:37:08.142Z,6.60
2022-11-13T01:38:08.127Z,7.30
2022-11-13T01:39:08.121Z,7.10
2022-11-13T01:40:08.115Z,7.50
2022-11-13T01:41:08.123Z,7.80
2022-11-13T01:42:08.081Z,8.00
2022-11-13T01:43:08.080Z,7.80
2022-11-13T01:44:08.062Z,8.20
2022-11-13T01:45:08.060Z,7.90
2022-11-13T01:46:08.057Z,7.60
2022-11-13T01:47:08.035Z,8.10
2022-11-13T01:48:08.015Z,7.90
2022-11-13T01:49:08.014Z,7.60
2022-11-13T01:50:07.995Z,7.60
2022-11-13T01:51:08.002Z,7.20
2022-11-13T01:52:07.979Z,7.60
2022-11-13T01:53:07.971Z,7.40
2022-11-13T01:54:07.970Z,7.40
2022-11-13T01:55:07.948Z,7.80
2022-11-13T01:56:07.944Z,8.10
2022-11-13T01:57:07.926Z,7.90
2022-11-13T01:58:07.918Z,8.10
2022-11-13T01:59:07.905Z,7.90
2022-11-13T02:00:07.893Z,8.00
2022-11-13T02:01:07.895Z,8.10
2022-11-13T02:02:07.876Z,7.80
2022-11-13T02:03:07.858Z,8.10
2022-11-13T02:04:07.844Z,8.40
2022-11-13T02:05:07.837Z,8.80
2022-11-13T02:06:07.848Z,7.10
2022-11-13T02:07:07.914Z,7.90
2022-11-13T02:08:07.806Z,7.90
2022-11-13T02:09:07.797Z,7.90
2022-11-13T02:10:07.785Z,6.70
2022-11-13T02:11:07.790Z,6.10
2022-11-13T02:12:07.767Z,6.80
2022-11-13T02:13:07.749Z,6.20
2022-11-13T02:14:07.744Z,6.30
2022-11-13T02:15:07.730Z,6.50
2022-11-13T02:16:07.734Z,6.80
2022-11-13T02:17:07.713Z,6.60
2022-11-13T02:18:07.705Z,6.30
2022-11-13T02:19:07.686Z,6.80
2022-11-13T02:20:07.680Z,6.70
2022-11-13T02:21:07.681Z,6.70
2022-11-13T02:22:07.660Z,6.40
2022-11-13T02:23:07.642Z,7.20
2022-11-13T02:24:07.641Z,7.00
2022-11-13T02:25:07.624Z,6.70
2022-11-13T02:26:07.626Z,6.90
2022-11-13T02:27:07.601Z,6.80
2022-11-13T02:28:07.592Z,7.50
2022-11-13T02:29:07.581Z,7.30
2022-11-13T02:30:08.531Z,7.60
2022-11-13T02:31:07.572Z,7.10
2022-11-13T02:32:07.550Z,7.10
2022-11-13T02:33:07.539Z,6.30
2022-11-13T02:34:07.533Z,6.20
2022-11-13T02:35:07.526Z,7.10
2022-11-13T02:36:07.521Z,6.80
2022-11-13T02:37:07.493Z,6.80
2022-11-13T02:38:07.486Z,6.70
2022-11-13T02:39:07.482Z,6.70
2022-11-13T02:40:07.466Z,7.30
2022-11-13T02:41:07.468Z,6.80
2022-11-13T02:42:07.451Z,7.00
2022-11-13T02:43:07.439Z,6.90
2022-11-13T02:44:07.425Z,6.90
2022-11-13T02:45:07.410Z,6.90
2022-11-13T02:46:07.414Z,6.80
2022-11-13T02:47:07.386Z,7.30
2022-11-13T02:48:07.380Z,7.40
2022-11-13T02:49:07.369Z,7.10
2022-11-13T02:50:07.367Z,7.10
2022-11-13T02:51:07.358Z,7.10
2022-11-13T02:52:07.337Z,7.30
2022-11-13T02:53:07.324Z,6.90
2022-11-13T02:54:07.323Z,7.10
2022-11-13T02:55:07.297Z,7.00
2022-11-13T02:56:07.309Z,7.10
2022-11-13T02:57:07.279Z,6.80
2022-11-13T02:58:07.269Z,7.30
2022-11-13T02:59:07.261Z,6.80
2022-11-13T03:00:12.363Z,6.60
2022-11-13T03:01:07.253Z,7.20
2022-11-13T03:02:07.300Z,6.60
2022-11-13T03:03:07.218Z,6.30
2022-11-13T03:04:07.211Z,7.20
2022-11-13T03:05:12.583Z,6.40
2022-11-13T03:06:07.206Z,6.80
2022-11-13T03:07:07.209Z,7.30
2022-11-13T03:08:07.163Z,6.40
2022-11-13T03:09:07.149Z,6.80
2022-11-13T03:10:07.141Z,6.90
2022-11-13T03:11:07.143Z,7.10
2022-11-13T03:12:07.117Z,6.80
2022-11-13T03:13:07.110Z,6.80
2022-11-13T03:14:07.096Z,7.20
2022-11-13T03:15:07.087Z,6.30
2022-11-13T03:16:07.094Z,6.50
2022-11-13T03:17:07.063Z,6.70
2022-11-13T03:18:07.059Z,7.00
2022-11-13T03:19:07.037Z,7.20
2022-11-13T03:20:07.035Z,7.30
2022-11-13T03:21:07.035Z,6.60
2022-11-13T03:22:07.011Z,6.70
2022-11-13T03:23:06.996Z,6.40
2022-11-13T03:24:06.992Z,7.20
2022-11-13T03:25:10.466Z,7.00
2022-11-13T03:26:06.979Z,6.50
2022-11-13T03:27:06.956Z,7.10
2022-11-13T03:28:06.950Z,7.20
2022-11-13T03:29:06.934Z,6.60
2022-11-13T03:30:06.927Z,6.50
2022-11-13T03:31:06.925Z,6.20
2022-11-13T03:32:06.920Z,7.30
2022-11-13T03:33:06.894Z,7.00
2022-11-13T03:34:06.887Z,6.70
2022-11-13T03:35:06.868Z,6.80
2022-11-13T03:36:06.873Z,6.90
2022-11-13T03:37:06.845Z,6.30
2022-11-13T03:38:06.840Z,7.30
2022-11-13T03:39:06.831Z,7.10
2022-11-13T03:40:06.833Z,7.20
2022-11-13T03:41:06.802Z,6.70
2022-11-13T03:42:06.797Z,6.60
2022-11-13T03:43:06.793Z,6.50
2022-11-13T03:44:06.777Z,6.60
2022-11-13T03:45:06.772Z,6.30
2022-11-13T03:46:06.766Z,6.90
2022-11-13T03:47:06.739Z,6.70
2022-11-13T03:48:06.731Z,6.60
2022-11-13T03:49:06.718Z,6.40
2022-11-13T03:50:06.709Z,6.40
2022-11-13T03:51:06.709Z,6.70
2022-11-13T03:52:06.691Z,6.80
2022-11-13T03:53:06.674Z,6.90
2022-11-13T03:54:06.670Z,6.80
2022-11-13T03:55:06.652Z,6.80
2022-11-13T03:56:06.658Z,6.70
2022-11-13T03:57:06.631Z,6.80
2022-11-13T03:58:06.625Z,6.90
2022-11-13T03:59:06.611Z,7.70
2022-11-13T04:00:06.601Z,7.80
2022-11-13T04:01:06.596Z,7.70
2022-11-13T04:02:06.647Z,7.30
2022-11-13T04:03:06.564Z,6.90
2022-11-13T04:04:06.561Z,7.10
2022-11-13T04:05:06.545Z,7.00
2022-11-13T04:06:06.553Z,7.40
2022-11-13T04:07:06.558Z,6.80
2022-11-13T04:08:06.513Z,6.80
2022-11-13T04:09:06.507Z,7.10
2022-11-13T04:10:06.498Z,6.90
2022-11-13T04:11:06.494Z,7.10
2022-11-13T04:12:06.476Z,6.90
2022-11-13T04:13:06.455Z,6.20
2022-11-13T04:14:06.458Z,6.10
2022-11-13T04:15:06.437Z,6.60
2022-11-13T04:16:06.445Z,6.80
2022-11-13T04:17:06.417Z,7.30
2022-11-13T04:18:06.406Z,7.30
2022-11-13T04:19:06.401Z,7.90
2022-11-13T04:20:06.383Z,7.50
2022-11-13T04:21:06.389Z,7.90
2022-11-13T04:22:06.374Z,8.40
2022-11-13T04:23:06.368Z,8.50
2022-11-13T04:24:06.345Z,8.30
2022-11-13T04:25:06.332Z,7.80
2022-11-13T04:26:06.551Z,7.40
2022-11-13T04:27:06.316Z,7.10
2022-11-13T04:28:06.300Z,7.20
2022-11-13T04:29:06.296Z,7.20
2022-11-13T04:30:06.283Z,7.20
2022-11-13T04:31:06.280Z,7.00
2022-11-13T04:32:06.261Z,6.90
2022-11-13T04:33:06.245Z,7.20
2022-11-13T04:34:06.239Z,6.50
2022-11-13T04:35:06.300Z,6.30
2022-11-13T04:36:06.251Z,6.70
2022-11-13T04:37:06.201Z,6.90
2022-11-13T04:38:06.199Z,7.40
2022-11-13T04:39:06.179Z,7.20
2022-11-13T04:40:06.181Z,7.80
2022-11-13T04:41:06.179Z,6.50
2022-11-13T04:42:06.150Z,5.30
2022-11-13T04:43:06.141Z,6.60
2022-11-13T04:44:06.129Z,6.20
2022-11-13T04:45:06.131Z,6.40
2022-11-13T04:46:06.109Z,7.20
2022-11-13T04:47:06.094Z,7.50
2022-11-13T04:48:06.086Z,7.50
2022-11-13T04:49:06.072Z,7.60
2022-11-13T04:50:06.083Z,7.10
2022-11-13T04:51:06.052Z,7.20
2022-11-13T04:52:06.054Z,6.70
2022-11-13T04:53:06.033Z,6.30
2022-11-13T04:54:06.032Z,6.50
2022-11-13T04:55:06.017Z,6.50
2022-11-13T04:56:06.002Z,7.20
2022-11-13T04:57:05.983Z,7.10
2022-11-13T04:58:05.980Z,7.20
2022-11-13T04:59:05.966Z,7.10
2022-11-13T05:00:05.975Z,6.70
2022-11-13T05:01:05.939Z,6.80
2022-11-13T05:02:05.970Z,6.40
2022-11-13T05:03:05.920Z,7.20
2022-11-13T05:04:05.923Z,6.90
2022-11-13T05:05:05.913Z,6.90
2022-11-13T05:06:05.889Z,6.20
2022-11-13T05:07:05.939Z,6.70
2022-11-13T05:08:05.874Z,6.60
2022-11-13T05:09:05.855Z,6.90
2022-11-13T05:10:05.858Z,6.70
2022-11-13T05:11:05.836Z,6.60
2022-11-13T05:12:05.829Z,6.60
2022-11-13T05:13:05.818Z,7.10
2022-11-13T05:14:05.806Z,6.70
2022-11-13T05:15:05.801Z,6.50
2022-11-13T05:16:05.792Z,7.10
2022-11-13T05:17:05.768Z,8.30
2022-11-13T05:18:05.771Z,6.90
2022-11-13T05:19:05.747Z,7.80
2022-11-13T05:20:05.754Z,8.10
2022-11-13T05:21:05.733Z,8.40
2022-11-13T05:22:05.716Z,7.40
2022-11-13T05:23:05.703Z,6.90
2022-11-13T05:24:05.695Z,6.70
2022-11-13T05:25:05.683Z,6.70
2022-11-13T05:26:05.687Z,7.50
2022-11-13T05:27:05.663Z,6.10
2022-11-13T05:28:05.654Z,6.60
2022-11-13T05:29:05.640Z,7.20
2022-11-13T05:30:05.631Z,6.90
2022-11-13T05:31:05.629Z,6.30
2022-11-13T05:32:05.613Z,6.10
2022-11-13T05:33:05.598Z,6.60
2022-11-13T05:34:06.220Z,6.60
2022-11-13T05:35:05.588Z,6.20
2022-11-13T05:36:05.578Z,6.10
2022-11-13T05:37:05.554Z,6.30
2022-11-13T05:38:05.547Z,6.20
2022-11-13T05:39:05.536Z,6.20
2022-11-13T05:40:05.525Z,6.80
2022-11-13T05:41:05.527Z,6.30
2022-11-13T05:42:05.509Z,6.00
2022-11-13T05:43:05.492Z,6.30
2022-11-13T05:44:05.482Z,6.20
2022-11-13T05:45:05.471Z,6.10
2022-11-13T05:46:05.478Z,6.60
2022-11-13T05:47:05.452Z,6.50
2022-11-13T05:48:05.439Z,6.30
2022-11-13T05:49:05.423Z,6.30
2022-11-13T05:50:05.421Z,5.90
2022-11-13T05:51:05.413Z,5.70
2022-11-13T05:52:05.399Z,5.90
2022-11-13T05:53:05.391Z,5.90
2022-11-13T05:54:05.385Z,6.50
2022-11-13T05:55:05.366Z,5.90
2022-11-13T05:56:05.370Z,6.10
2022-11-13T05:57:05.286Z,5.60
2022-11-13T05:58:05.332Z,5.60
2022-11-13T05:59:05.324Z,5.70
2022-11-13T06:00:05.268Z,5.50
2022-11-13T06:01:05.258Z,5.60
2022-11-13T06:02:05.288Z,5.80
2022-11-13T06:03:05.278Z,5.90
2022-11-13T06:04:05.227Z,6.40
2022-11-13T06:05:05.198Z,6.10
2022-11-13T06:06:05.219Z,5.50
2022-11-13T06:07:05.230Z,5.90
2022-11-13T06:08:05.170Z,5.80
2022-11-13T06:09:05.169Z,5.50
2022-11-13T06:10:05.157Z,6.30
2022-11-13T06:11:05.146Z,6.40
2022-11-13T06:12:05.132Z,6.10
2022-11-13T06:13:05.118Z,5.70
2022-11-13T06:14:05.107Z,6.30
2022-11-13T06:15:05.098Z,5.50
2022-11-13T06:16:05.102Z,5.80
2022-11-13T06:17:05.070Z,6.40
2022-11-13T06:18:05.064Z,6.00
2022-11-13T06:19:05.053Z,6.10
2022-11-13T06:20:05.054Z,6.50
2022-11-13T06:21:05.042Z,6.40
2022-11-13T06:22:05.024Z,6.60
2022-11-13T06:23:05.014Z,6.50
2022-11-13T06:24:05.002Z,6.30
2022-11-13T06:25:04.987Z,6.00
2022-11-13T06:26:04.994Z,5.80
2022-11-13T06:27:04.966Z,6.00
2022-11-13T06:28:04.955Z,5.90
2022-11-13T06:29:04.952Z,5.90
2022-11-13T06:30:04.934Z,6.00
2022-11-13T06:31:04.939Z,6.80
2022-11-13T06:32:04.915Z,6.30
2022-11-13T06:33:04.905Z,6.20
2022-11-13T06:34:04.893Z,6.40
2022-11-13T06:35:04.891Z,6.20
2022-11-13T06:36:04.883Z,6.10
2022-11-13T06:37:04.864Z,6.00
2022-11-13T06:38:04.850Z,5.60
2022-11-13T06:39:04.881Z,6.00
2022-11-13T06:40:04.829Z,6.20
2022-11-13T06:41:04.840Z,6.10
2022-11-13T06:42:04.806Z,6.10
2022-11-13T06:43:04.800Z,5.80
2022-11-13T06:44:04.786Z,6.00
2022-11-13T06:45:04.868Z,6.20
2022-11-13T06:46:04.761Z,5.90
2022-11-13T06:47:04.759Z,6.20
2022-11-13T06:48:04.744Z,5.90
2022-11-13T06:49:04.735Z,6.30
2022-11-13T06:50:04.733Z,5.70
2022-11-13T06:51:04.716Z,5.80
2022-11-13T06:52:04.698Z,6.20
2022-11-13T06:53:04.717Z,5.80
2022-11-13T06:54:04.686Z,5.80
2022-11-13T06:55:04.686Z,6.00
2022-11-13T06:56:04.654Z,5.40
2022-11-13T06:57:04.649Z,6.10
2022-11-13T06:58:04.637Z,5.50
2022-11-13T06:59:08.302Z,5.60
2022-11-13T07:00:04.630Z,5.80
2022-11-13T07:01:04.625Z,6.50
2022-11-13T07:02:04.593Z,5.80
2022-11-13T07:03:04.585Z,5.40
2022-11-13T07:04:04.569Z,5.30
2022-11-13T07:05:04.576Z,5.90
2022-11-13T07:06:04.548Z,5.70
2022-11-13T07:07:04.613Z,5.50
2022-11-13T07:08:04.526Z,6.00
2022-11-13T07:09:04.521Z,5.40
2022-11-13T07:10:04.525Z,6.40
2022-11-13T07:11:04.504Z,5.60
2022-11-13T07:12:04.491Z,5.80
2022-11-13T07:13:04.479Z,5.70
2022-11-13T07:14:04.465Z,5.20
2022-11-13T07:15:04.469Z,5.60
2022-11-13T07:16:15.852Z,5.90
2022-11-13T07:17:09.718Z,5.60
2022-11-13T07:18:04.428Z,5.70
2022-11-13T07:19:04.435Z,5.30
2022-11-13T07:20:04.417Z,5.50
2022-11-13T07:21:04.394Z,5.30
2022-11-13T07:22:04.379Z,5.50
2022-11-13T07:23:04.370Z,5.50
2022-11-13T07:24:04.356Z,5.10
2022-11-13T07:25:04.368Z,5.60
2022-11-13T07:26:04.334Z,5.50
2022-11-13T07:27:04.327Z,5.70
2022-11-13T07:28:04.321Z,4.90
2022-11-13T07:29:04.310Z,5.50
2022-11-13T07:30:04.343Z,5.30
2022-11-13T07:31:04.288Z,5.20
2022-11-13T07:32:04.272Z,5.70
2022-11-13T07:33:04.278Z,5.60
2022-11-13T07:34:04.252Z,5.70
2022-11-13T07:35:04.265Z,6.10
2022-11-13T07:36:04.233Z,6.50
2022-11-13T07:37:04.224Z,5.80
2022-11-13T07:38:04.211Z,6.10
2022-11-13T07:39:04.205Z,6.70
2022-11-13T07:40:04.202Z,6.60
2022-11-13T07:41:04.197Z,6.00
2022-11-13T07:42:04.168Z,6.40
2022-11-13T07:43:04.164Z,6.40
2022-11-13T07:44:08.839Z,6.80
2022-11-13T07:45:04.154Z,6.70
2022-11-13T07:46:04.126Z,6.20
2022-11-13T07:47:04.121Z,6.30
2022-11-13T07:48:04.106Z,6.00
2022-11-13T07:49:04.093Z,6.00
2022-11-13T07:50:09.613Z,6.40
2022-11-13T07:51:04.087Z,5.60
2022-11-13T07:52:04.057Z,5.60
2022-11-13T07:53:04.053Z,5.40
2022-11-13T07:54:04.037Z,5.50
2022-11-13T07:55:04.052Z,5.20
2022-11-13T07:56:04.014Z,4.90
2022-11-13T07:57:04.012Z,5.10
2022-11-13T07:58:03.993Z,5.20
2022-11-13T07:59:03.998Z,5.30
2022-11-13T08:00:03.984Z,5.80
2022-11-13T08:01:04.061Z,5.60
2022-11-13T08:02:03.949Z,5.10
2022-11-13T08:03:03.948Z,5.40
2022-11-13T08:04:03.927Z,5.30
2022-11-13T08:05:03.936Z,5.50
2022-11-13T08:06:03.912Z,5.80
2022-11-13T08:07:03.955Z,5.70
2022-11-13T08:08:03.900Z,5.50
2022-11-13T08:09:03.880Z,4.80
2022-11-13T08:10:03.880Z,5.60
2022-11-13T08:11:03.855Z,5.00
2022-11-13T08:12:03.845Z,4.80
2022-11-13T08:13:03.835Z,5.10
2022-11-13T08:14:03.818Z,5.40
2022-11-13T08:15:03.835Z,5.40
2022-11-13T08:16:03.857Z,5.70
2022-11-13T08:17:03.797Z,5.00
2022-11-13T08:18:03.779Z,5.10
2022-11-13T08:19:03.771Z,5.60
2022-11-13T08:20:03.770Z,5.40
2022-11-13T08:21:03.747Z,5.70
2022-11-13T08:22:03.736Z,5.70
2022-11-13T08:23:03.738Z,5.90
2022-11-13T08:24:03.711Z,6.30
2022-11-13T08:25:03.720Z,7.10
2022-11-13T08:26:03.696Z,6.80
2022-11-13T08:27:03.687Z,7.00
2022-11-13T08:28:04.811Z,7.50
2022-11-13T08:29:03.666Z,6.00
2022-11-13T08:30:03.661Z,5.00
2022-11-13T08:31:03.645Z,5.10
2022-11-13T08:32:03.629Z,5.40
2022-11-13T08:33:03.631Z,5.40
2022-11-13T08:34:03.618Z,6.10
2022-11-13T08:35:03.618Z,7.90
2022-11-13T08:36:03.596Z,7.30
2022-11-13T08:37:03.585Z,7.30
2022-11-13T08:38:03.568Z,5.80
2022-11-13T08:39:03.571Z,6.30
2022-11-13T08:40:03.559Z,5.40
2022-11-13T08:41:08.648Z,7.10
2022-11-13T08:42:03.542Z,5.60
2022-11-13T08:43:03.523Z,6.20
2022-11-13T08:44:03.507Z,6.40
2022-11-13T08:45:03.515Z,6.00
2022-11-13T08:46:03.489Z,6.50
2022-11-13T08:47:03.487Z,7.10
2022-11-13T08:48:03.472Z,7.00
2022-11-13T08:49:03.461Z,6.80
2022-11-13T08:50:03.461Z,6.80
2022-11-13T08:51:03.443Z,7.10
2022-11-13T08:52:03.425Z,6.40
2022-11-13T08:53:03.413Z,5.60
2022-11-13T08:54:03.416Z,6.20
2022-11-13T08:55:03.392Z,5.70
2022-11-13T08:56:03.379Z,4.90
2022-11-13T08:57:05.948Z,5.10
2022-11-13T08:58:03.384Z,5.10
2022-11-13T08:59:03.355Z,4.60
2022-11-13T09:00:03.363Z,5.00
2022-11-13T09:01:03.343Z,9.60
2022-11-13T09:02:03.314Z,5.00
2022-11-13T09:03:03.311Z,4.70
2022-11-13T09:04:03.355Z,4.80
2022-11-13T09:05:03.314Z,4.50
2022-11-13T09:06:03.271Z,4.50
2022-11-13T09:07:03.349Z,4.70
2022-11-13T09:08:03.261Z,5.00
2022-11-13T09:09:03.249Z,4.90
2022-11-13T09:10:03.238Z,4.60
2022-11-13T09:11:03.227Z,4.70
2022-11-13T09:12:03.208Z,4.80
2022-11-13T09:13:03.203Z,4.70
2022-11-13T09:14:03.189Z,5.00
2022-11-13T09:15:03.199Z,5.00
2022-11-13T09:16:03.168Z,4.90
2022-11-13T09:17:03.161Z,4.80
2022-11-13T09:18:03.156Z,4.60
2022-11-13T09:19:03.144Z,5.00
2022-11-13T09:20:04.519Z,5.00
2022-11-13T09:21:03.123Z,4.60
2022-11-13T09:22:03.104Z,4.20
2022-11-13T09:23:03.096Z,4.10
2022-11-13T09:24:03.089Z,4.40
2022-11-13T09:25:03.088Z,4.60
2022-11-13T09:26:03.061Z,4.70
2022-11-13T09:27:03.061Z,4.30
2022-11-13T09:28:03.040Z,4.50
2022-11-13T09:29:03.032Z,4.50
2022-11-13T09:30:03.023Z,4.60
2022-11-13T09:31:03.017Z,5.10
2022-11-13T09:32:02.993Z,4.50
2022-11-13T09:33:02.996Z,4.60
2022-11-13T09:34:02.973Z,4.60
2022-11-13T09:35:02.978Z,4.30
2022-11-13T09:36:02.960Z,4.80
2022-11-13T09:37:02.947Z,4.80
2022-11-13T09:38:07.867Z,4.90
2022-11-13T09:39:02.934Z,4.50
2022-11-13T09:40:02.925Z,5.00
2022-11-13T09:41:02.907Z,4.90
2022-11-13T09:42:02.899Z,4.90
2022-11-13T09:43:02.885Z,4.90
2022-11-13T09:44:02.870Z,4.60
2022-11-13T09:45:02.879Z,4.60
2022-11-13T09:46:02.852Z,4.80
2022-11-13T09:47:02.845Z,4.90
2022-11-13T09:48:02.826Z,4.80
2022-11-13T09:49:02.832Z,5.10
2022-11-13T09:50:02.829Z,4.90
2022-11-13T09:51:02.801Z,5.10
2022-11-13T09:52:06.642Z,5.10
2022-11-13T09:53:02.784Z,5.10
2022-11-13T09:54:02.777Z,5.20
2022-11-13T09:55:02.778Z,5.20
2022-11-13T09:56:02.746Z,5.50
2022-11-13T09:57:02.814Z,5.40
2022-11-13T09:58:02.723Z,5.20
2022-11-13T09:59:02.726Z,5.80
2022-11-13T10:00:02.724Z,5.90
2022-11-13T10:01:02.737Z,6.10
2022-11-13T10:02:02.686Z,6.20
2022-11-13T10:03:02.675Z,6.30
2022-11-13T10:04:04.321Z,5.80
2022-11-13T10:05:02.669Z,6.70
2022-11-13T10:06:02.647Z,6.30
2022-11-13T10:07:02.865Z,6.90
2022-11-13T10:08:02.630Z,6.30
2022-11-13T10:09:02.616Z,6.20
2022-11-13T10:10:02.622Z,6.30
2022-11-13T10:11:02.599Z,6.40
2022-11-13T10:12:02.585Z,6.90
2022-11-13T10:13:02.582Z,7.30
2022-11-13T10:14:02.568Z,6.60
2022-11-13T10:15:02.570Z,6.60
2022-11-13T10:16:02.545Z,6.60
2022-11-13T10:17:02.585Z,6.80
2022-11-13T10:18:02.534Z,6.40
2022-11-13T10:19:02.520Z,6.40
2022-11-13T10:20:02.560Z,6.30
2022-11-13T10:21:06.770Z,6.30
2022-11-13T10:22:31.053Z,6.00
2022-11-13T10:23:02.490Z,6.30
2022-11-13T10:24:02.466Z,6.30
2022-11-13T10:25:02.477Z,6.30
2022-11-13T10:26:02.451Z,6.30
2022-11-13T10:27:02.505Z,5.70
2022-11-13T10:28:15.909Z,6.10
2022-11-13T10:29:02.540Z,6.00
2022-11-13T10:30:02.424Z,6.30
2022-11-13T10:31:02.401Z,5.90
2022-11-13T10:32:02.385Z,5.90
2022-11-13T10:33:02.379Z,6.00
2022-11-13T10:34:02.366Z,6.00
2022-11-13T10:35:02.384Z,5.70
2022-11-13T10:36:02.346Z,5.80
2022-11-13T10:37:02.386Z,5.70
2022-11-13T10:38:07.804Z,5.50
2022-11-13T10:39:02.391Z,5.70
2022-11-13T10:40:02.328Z,5.60
2022-11-13T10:41:02.306Z,5.60
2022-11-13T10:42:02.295Z,5.60
2022-11-13T10:43:02.292Z,5.20
2022-11-13T10:44:02.275Z,5.40
2022-11-13T10:45:02.271Z,5.30
2022-11-13T10:46:02.271Z,5.30
2022-11-13T10:47:02.239Z,5.30
2022-11-13T10:48:04.956Z,5.30
2022-11-13T10:49:02.224Z,4.60
2022-11-13T10:50:02.227Z,4.40
2022-11-13T10:51:02.207Z,4.70
2022-11-13T10:52:02.200Z,4.80
2022-11-13T10:53:02.184Z,4.30
2022-11-13T10:54:02.179Z,4.40
2022-11-13T10:55:02.177Z,4.30
2022-11-13T10:56:02.162Z,4.50
2022-11-13T10:57:02.144Z,4.60
2022-11-13T10:58:02.151Z,4.20
2022-11-13T10:59:02.130Z,4.40
2022-11-13T11:00:02.132Z,5.10
2022-11-13T11:01:02.230Z,5.20
2022-11-13T11:02:02.104Z,4.50
2022-11-13T11:03:02.095Z,4.40
2022-11-13T11:04:02.089Z,3.90
2022-11-13T11:05:02.084Z,3.70
2022-11-13T11:06:02.067Z,3.80
2022-11-13T11:07:19.560Z,3.50
2022-11-13T11:08:02.151Z,3.50
2022-11-13T11:09:02.035Z,3.60
2022-11-13T11:10:02.049Z,3.60
2022-11-13T11:11:02.022Z,3.30
2022-11-13T11:12:02.013Z,3.60
2022-11-13T11:13:02.013Z,4.30
2022-11-13T11:14:01.998Z,3.80
2022-11-13T11:15:02.000Z,3.90
2022-11-13T11:16:01.981Z,3.90
2022-11-13T11:17:01.965Z,3.70
2022-11-13T11:18:01.963Z,4.30
2022-11-13T11:19:01.950Z,3.70
2022-11-13T11:20:01.954Z,3.80
2022-11-13T11:21:01.931Z,3.50
2022-11-13T11:22:01.927Z,3.10
2022-11-13T11:23:01.911Z,3.10
2022-11-13T11:24:01.905Z,3.00
2022-11-13T11:25:01.903Z,3.00
2022-11-13T11:26:01.892Z,2.80
2022-11-13T11:27:01.875Z,2.70
2022-11-13T11:28:01.873Z,2.90
2022-11-13T11:29:01.885Z,2.80
2022-11-13T11:30:01.864Z,2.50
2022-11-13T11:31:01.842Z,2.60
2022-11-13T11:32:01.833Z,2.70
2022-11-13T11:33:01.826Z,2.70
2022-11-13T11:34:01.817Z,2.70
2022-11-13T11:35:01.816Z,2.50
2022-11-13T11:36:01.807Z,2.50
2022-11-13T11:37:01.811Z,2.60
2022-11-13T11:38:01.780Z,3.40
2022-11-13T11:39:01.767Z,3.20
2022-11-13T11:40:01.773Z,2.50
2022-11-13T11:41:01.750Z,2.50
2022-11-13T11:42:01.751Z,2.10
2022-11-13T11:43:01.734Z,2.00
2022-11-13T11:44:01.729Z,2.00
2022-11-13T11:45:01.725Z,2.20
2022-11-13T11:46:01.712Z,1.90
2022-11-13T11:47:01.693Z,2.10
2022-11-13T11:48:01.694Z,2.00
2022-11-13T11:49:01.683Z,2.00
2022-11-13T11:50:01.683Z,1.80
2022-11-13T11:51:01.675Z,1.80
2022-11-13T11:52:01.654Z,1.70
2022-11-13T11:53:01.642Z,1.70
2022-11-13T11:54:01.640Z,1.50
2022-11-13T11:55:01.646Z,1.60
2022-11-13T11:56:01.616Z,2.30
2022-11-13T11:57:01.611Z,1.60
2022-11-13T11:58:01.607Z,1.50
2022-11-13T11:59:01.584Z,1.70
2022-11-13T12:00:01.631Z,1.70
2022-11-13T12:01:01.566Z,1.80
2022-11-13T12:02:01.564Z,1.70
2022-11-13T12:03:01.551Z,1.60
2022-11-13T12:04:01.544Z,1.60
2022-11-13T12:05:01.626Z,1.70
2022-11-13T12:06:01.528Z,1.70
2022-11-13T12:07:01.540Z,1.50
2022-11-13T12:08:01.520Z,1.90
2022-11-13T12:09:01.503Z,1.60
2022-11-13T12:10:01.513Z,1.60
2022-11-13T12:11:01.479Z,1.60
2022-11-13T12:12:01.471Z,1.60
2022-11-13T12:13:01.455Z,1.70
2022-11-13T12:14:01.451Z,1.60
2022-11-13T12:15:01.448Z,1.50
2022-11-13T12:16:01.432Z,2.30
2022-11-13T12:17:01.420Z,1.70
2022-11-13T12:18:01.416Z,1.70
2022-11-13T12:19:01.413Z,1.60
2022-11-13T12:20:01.400Z,1.60
2022-11-13T12:21:01.383Z,1.70
2022-11-13T12:22:01.384Z,1.70
2022-11-13T12:23:01.368Z,1.60
2022-11-13T12:24:01.370Z,1.50
2022-11-13T12:25:01.344Z,1.50
2022-11-13T12:26:01.340Z,1.70
2022-11-13T12:27:01.328Z,1.70
2022-11-13T12:28:01.321Z,1.70
2022-11-13T12:29:01.328Z,1.60
2022-11-13T12:30:01.307Z,1.60
2022-11-13T12:31:01.293Z,1.70
2022-11-13T12:32:01.282Z,1.70
2022-11-13T12:33:01.271Z,1.60
2022-11-13T12:34:01.889Z,1.30
2022-11-13T12:35:01.263Z,1.70
2022-11-13T12:36:01.248Z,1.80
2022-11-13T12:37:01.234Z,1.80
2022-11-13T12:38:01.228Z,1.80
2022-11-13T12:39:01.211Z,1.90
2022-11-13T12:40:01.227Z,2.00
2022-11-13T12:41:01.197Z,2.10
2022-11-13T12:42:01.188Z,2.30
2022-11-13T12:43:01.175Z,2.00
2022-11-13T12:44:01.166Z,2.40
2022-11-13T12:45:01.168Z,2.10
2022-11-13T12:46:01.153Z,2.30
2022-11-13T12:47:01.136Z,2.00
2022-11-13T12:48:01.129Z,2.10
2022-11-13T12:49:01.125Z,1.90
2022-11-13T12:50:01.120Z,2.10
2022-11-13T12:51:01.095Z,2.00
2022-11-13T12:52:01.099Z,2.10
2022-11-13T12:53:01.082Z,2.10
2022-11-13T12:54:01.075Z,2.00
2022-11-13T12:55:01.070Z,2.10
2022-11-13T12:56:01.056Z,1.90
2022-11-13T12:57:01.036Z,2.10
2022-11-13T12:58:01.033Z,1.90
2022-11-13T12:59:29.287Z,2.10
2022-11-13T13:00:01.029Z,2.00
2022-11-13T13:01:01.053Z,2.20
2022-11-13T13:02:00.993Z,2.00
2022-11-13T13:03:00.978Z,1.80
2022-11-13T13:04:00.987Z,1.90
2022-11-13T13:05:00.962Z,1.80
2022-11-13T13:06:00.955Z,2.10
2022-11-13T13:07:00.948Z,3.60
2022-11-13T13:08:04.706Z,1.90
2022-11-13T13:09:00.928Z,2.00
2022-11-13T13:10:00.916Z,1.70
2022-11-13T13:11:00.897Z,1.90
2022-11-13T13:12:00.897Z,1.80
2022-11-13T13:13:00.881Z,1.70
2022-11-13T13:14:00.891Z,1.90
2022-11-13T13:15:00.862Z,1.90
2022-11-13T13:16:00.853Z,1.80
2022-11-13T13:17:00.838Z,2.00
2022-11-13T13:18:00.836Z,1.80